SPME

Details ICAO SPME (TBP)
Name PEDRO CANGA
Region Peru
Timezone America/Lima (UTC-5.0)
Plans Departing 3
Arriving 3
Stats Elevation 115 ft / 35 m (AMSL)
Location -3.552526° -80.381356°
Runways 1
Magnetic Variation 1.590° W
Sunrise 2018-05-25 11:21:48 UTC / 2018-05-25 06:21:48 Local
Sunset 2018-05-25 23:18:02 UTC / 2018-05-25 18:18:02 Local
Advertisement - Login to hide

Runways

ID Width Length Bearing (true) Bearing (mag) Surface Threshold Offset Overrun Length
14 148 ft / 45 m 8,181 ft / 2,494 m 141.44° 143.03° Asphalt 0 ft / 0 m 500 ft / 152 m
32 148 ft / 45 m 8,181 ft / 2,494 m 321.44° 323.03° Asphalt 0 ft / 0 m 500 ft / 152 m

Map

Weather


0- 5 10 15 20 25 30 35+ Temperature / ° C

Clouds and Precipitation
Forecast for 2018-05-26 00:00 UTC. Updated 5 hours ago

Ground ~20,000 ft ~40,000 ft Winds

METAR

SPME 260300Z 27003KT 9999 SCT013 BKN023 24/21 Q1012 RMK BIRD HAZARD RWY 32/14 PP000

TAF

Not found

Frequencies

Tower 118.70 MHz TUMBES APP/TWR
Warning: Do not use this data for real-world aviation or navigation. No guarantee of current accuracy is given.